Pitmedden, United Kingdom
Current Conditions -  °F | °C
As of 4:50 PM on Monday 22 Dec 2014 (Local Time) from EGPD Reporting Station
Clear Clear  
Wind Chill: 40°   Ceiling: Unl
Heat Index: 45°   Visibility: 6mi
Dew Point: 34°   Wind: 8mph
Humidity: 66%   Direction: 260°W
Pressure: 29.5"   Gusts: NA
Location:  57.34°N, 2.18°W
Report Text: EGPD 221650Z 26007KT CAVOK 07/01 Q0999 NOSIG
Loading
Personal Weather Stations






























Interactive Weather Map New forecast layout! Learn more

10-Day Weather Forecast

Advertisements
Track Severe Weather on mobile